createdAt,value
2018-04-10T00:02:03.922Z,99.4
2018-04-10T00:07:03.452Z,98.9
2018-04-10T00:12:03.094Z,99.2
2018-04-10T00:17:03.686Z,99.2
2018-04-10T00:22:03.442Z,99.2
2018-04-10T00:27:03.940Z,99.3
2018-04-10T00:32:03.645Z,99.4
2018-04-10T00:37:03.293Z,99.4
2018-04-10T00:42:03.697Z,99.0
2018-04-10T00:47:03.288Z,98.6
2018-04-10T00:52:03.424Z,98.8
2018-04-10T00:57:03.894Z,98.8
2018-04-10T01:02:03.465Z,98.7
2018-04-10T01:07:03.337Z,98.8
2018-04-10T01:12:03.764Z,98.7
2018-04-10T01:17:03.333Z,98.8
2018-04-10T01:22:03.652Z,98.8
2018-04-10T01:27:03.150Z,98.6
2018-04-10T01:32:03.651Z,98.5
2018-04-10T01:37:03.363Z,98.8
2018-04-10T01:42:03.712Z,98.8
2018-04-10T01:47:03.300Z,98.8
2018-04-10T01:52:03.681Z,98.7
2018-04-10T01:57:03.421Z,98.4
2018-04-10T02:02:03.012Z,98.4
2018-04-10T02:07:03.429Z,98.5
2018-04-10T02:12:03.095Z,98.4
2018-04-10T02:17:03.686Z,98.2
2018-04-10T02:22:03.341Z,98.3
2018-04-10T02:27:03.715Z,98.2
2018-04-10T02:32:03.314Z,98.4
2018-04-10T02:37:03.935Z,97.8
2018-04-10T02:42:03.096Z,97.8
2018-04-10T02:47:03.315Z,98.1
2018-04-10T02:52:03.431Z,98.1
2018-04-10T02:57:03.435Z,98.3
2018-04-10T03:02:03.678Z,98.0
2018-04-10T03:07:03.853Z,98.4
2018-04-10T03:12:03.145Z,97.7
2018-04-10T03:17:03.412Z,98.2
2018-04-10T03:22:03.523Z,98.2
2018-04-10T03:27:03.522Z,97.9
2018-04-10T03:32:03.651Z,97.9
2018-04-10T03:37:03.666Z,97.8
2018-04-10T03:42:03.708Z,98.0
2018-04-10T03:47:03.861Z,97.9
2018-04-10T03:52:03.099Z,98.1
2018-04-10T03:57:03.263Z,98.1
2018-04-10T04:02:03.432Z,98.4
2018-04-10T04:07:03.588Z,98.4
2018-04-10T04:12:03.812Z,98.4
2018-04-10T04:17:16.870Z,98.4
2018-04-10T04:22:03.436Z,98.7
2018-04-10T04:27:03.691Z,98.7
2018-04-10T04:32:23.209Z,98.3
2018-04-10T04:37:03.252Z,97.8
2018-04-10T04:42:03.048Z,99.0
2018-04-10T04:47:27.471Z,99.0
2018-04-10T04:52:03.026Z,99.0
2018-04-10T04:57:03.162Z,98.8
2018-04-10T05:02:20.505Z,98.4
2018-04-10T05:07:03.799Z,98.4
2018-04-10T05:12:03.002Z,98.4
2018-04-10T05:17:23.401Z,98.3
2018-04-10T05:22:03.491Z,97.8
2018-04-10T05:27:03.649Z,97.8
2018-04-10T05:32:19.304Z,97.3
2018-04-10T05:37:03.064Z,98.0
2018-04-10T05:42:03.194Z,97.4
2018-04-10T05:47:23.314Z,97.4
2018-04-10T05:52:03.707Z,96.6
2018-04-10T05:57:03.780Z,96.6
2018-04-10T06:02:23.078Z,96.3
2018-04-10T06:07:03.294Z,96.2
2018-04-10T06:12:03.126Z,95.7
2018-04-10T06:17:21.831Z,95.6
2018-04-10T06:22:03.714Z,95.5
2018-04-10T06:27:04.048Z,95.1
2018-04-10T06:32:23.520Z,94.7
2018-04-10T06:37:03.378Z,94.5
2018-04-10T06:42:03.528Z,94.3
2018-04-10T06:47:20.824Z,94.4
2018-04-10T06:52:02.987Z,94.3
2018-04-10T06:57:03.154Z,94.2
2018-04-10T07:02:23.801Z,94.3
2018-04-10T07:07:03.713Z,94.3
2018-04-10T07:12:03.038Z,94.2
2018-04-10T07:17:19.486Z,94.3
2018-04-10T07:22:03.585Z,94.3
2018-04-10T07:27:03.799Z,94.3
2018-04-10T07:32:26.649Z,93.8
2018-04-10T07:37:03.206Z,94.0
2018-04-10T07:42:03.379Z,93.5
2018-04-10T07:47:27.209Z,94.0
2018-04-10T07:52:02.922Z,94.0
2018-04-10T07:57:03.116Z,93.8
2018-04-10T08:02:31.976Z,93.5
2018-04-10T08:07:03.694Z,93.4
2018-04-10T08:12:03.086Z,93.1
2018-04-10T08:17:19.093Z,93.0
2018-04-10T08:22:03.759Z,92.9
2018-04-10T08:27:03.879Z,93.4
2018-04-10T08:32:27.164Z,93.4
2018-04-10T08:37:03.394Z,92.6
2018-04-10T08:42:03.627Z,93.7
2018-04-10T08:47:27.206Z,93.6
2018-04-10T08:52:03.056Z,93.6
2018-04-10T08:57:03.327Z,93.2
2018-04-10T09:02:23.829Z,93.7
2018-04-10T09:07:03.745Z,93.6
2018-04-10T09:12:03.048Z,93.8
2018-04-10T09:17:25.726Z,94.2
2018-04-10T09:22:03.839Z,94.6
2018-04-10T09:27:03.061Z,94.5
2018-04-10T09:32:27.398Z,94.6
2018-04-10T09:37:03.617Z,94.5
2018-04-10T09:42:03.809Z,94.6
2018-04-10T09:47:17.379Z,95.0
2018-04-10T09:52:03.144Z,94.7
2018-04-10T09:57:03.338Z,94.5
2018-04-10T10:02:25.458Z,94.0
2018-04-10T10:07:03.453Z,94.2
2018-04-10T10:12:03.725Z,94.8
2018-04-10T10:17:24.101Z,94.7
2018-04-10T10:22:03.928Z,93.8
2018-04-10T10:27:03.846Z,93.8
2018-04-10T10:32:20.272Z,94.5
2018-04-10T10:37:03.544Z,95.0
2018-04-10T10:42:03.700Z,94.8
2018-04-10T10:47:27.383Z,95.1
2018-04-10T10:52:03.770Z,95.2
2018-04-10T10:57:03.069Z,95.6
2018-04-10T11:02:27.955Z,94.9
2018-04-10T11:07:03.738Z,95.2
2018-04-10T11:12:03.274Z,95.1
2018-04-10T11:17:23.823Z,95.5
2018-04-10T11:22:03.888Z,95.2
2018-04-10T11:27:03.066Z,95.2
2018-04-10T11:32:25.719Z,95.5
2018-04-10T11:37:03.629Z,94.0
2018-04-10T11:42:03.760Z,94.9
2018-04-10T11:47:22.957Z,93.5
2018-04-10T11:52:03.301Z,93.4
2018-04-10T11:57:03.585Z,91.8
2018-04-10T12:02:27.818Z,92.7
2018-04-10T12:07:03.971Z,93.9
2018-04-10T12:12:03.301Z,94.4
2018-04-10T12:17:20.949Z,93.8
2018-04-10T12:22:03.172Z,92.9
2018-04-10T12:27:03.389Z,93.2
2018-04-10T12:32:21.063Z,94.1
2018-04-10T12:37:03.548Z,94.0
2018-04-10T12:42:03.711Z,91.2
2018-04-10T12:47:23.628Z,92.8
2018-04-10T12:52:03.430Z,92.8
2018-04-10T12:57:03.607Z,95.2
2018-04-10T13:02:24.382Z,93.5
2018-04-10T13:07:03.669Z,92.5
2018-04-10T13:12:03.509Z,92.4
2018-04-10T13:17:23.891Z,91.3
2018-04-10T13:22:03.040Z,91.7
2018-04-10T13:27:03.233Z,91.6
2018-04-10T13:32:28.320Z,91.7
2018-04-10T13:37:03.120Z,89.2
2018-04-10T13:42:03.284Z,89.3
2018-04-10T13:47:24.237Z,89.8
2018-04-10T13:52:03.224Z,89.8
2018-04-10T13:57:03.406Z,89.7
2018-04-10T14:02:18.591Z,91.7
2018-04-10T14:07:03.639Z,91.6
2018-04-10T14:12:03.909Z,92.8
2018-04-10T14:17:21.671Z,92.7
2018-04-10T14:22:03.962Z,93.2
2018-04-10T14:27:03.126Z,93.0
2018-04-10T14:32:03.525Z,92.2
2018-04-10T14:37:03.617Z,94.3
2018-04-10T14:42:03.668Z,94.4
2018-04-10T14:47:23.826Z,93.7
2018-04-10T14:52:03.039Z,90.2
2018-04-10T14:57:03.217Z,94.3
2018-04-10T15:02:21.672Z,99.8
2018-04-10T15:07:03.822Z,99.6
2018-04-10T15:12:03.028Z,99.1
2018-04-10T15:17:20.081Z,97.6
2018-04-10T15:22:03.535Z,97.3
2018-04-10T15:27:03.743Z,97.3
2018-04-10T15:32:25.185Z,97.9
2018-04-10T15:37:03.456Z,97.6
2018-04-10T15:42:03.576Z,98.2
2018-04-10T15:47:22.007Z,98.8
2018-04-10T15:52:02.910Z,99.0
2018-04-10T15:57:03.135Z,98.6
2018-04-10T16:02:28.459Z,98.7
2018-04-10T16:07:03.795Z,98.7
2018-04-10T16:12:03.184Z,98.3
2018-04-10T16:17:23.913Z,99.4
2018-04-10T16:22:03.866Z,99.3
2018-04-10T16:27:02.990Z,99.9
2018-04-10T16:32:15.637Z,99.9
2018-04-10T16:37:03.023Z,98.0
2018-04-10T16:42:03.166Z,98.5
2018-04-10T16:47:19.501Z,98.2
2018-04-10T16:52:03.201Z,98.1
2018-04-10T16:57:03.397Z,98.5
2018-04-10T17:02:24.882Z,98.8
2018-04-10T17:07:03.836Z,98.6
2018-04-10T17:12:03.177Z,98.5
2018-04-10T17:17:24.550Z,99.0
2018-04-10T17:22:03.910Z,98.9
2018-04-10T17:27:03.125Z,99.0
2018-04-10T17:32:24.481Z,99.4
2018-04-10T17:37:03.080Z,99.1
2018-04-10T17:42:03.450Z,98.7
2018-04-10T17:47:26.072Z,98.9
2018-04-10T17:52:03.251Z,99.4
2018-04-10T17:57:03.562Z,99.4
2018-04-10T18:02:24.715Z,99.4
2018-04-10T18:07:03.460Z,99.6
2018-04-10T18:12:03.723Z,99.6
2018-04-10T18:17:27.767Z,99.8
2018-04-10T18:22:03.725Z,99.9
2018-04-10T18:27:03.040Z,99.9
2018-04-10T18:32:10.256Z,99.9
2018-04-10T18:37:03.576Z,99.9
2018-04-10T18:42:03.685Z,99.9
2018-04-10T18:47:03.891Z,99.9
2018-04-10T18:52:03.070Z,99.9
2018-04-10T18:57:03.197Z,99.9
2018-04-10T19:02:03.423Z,99.9
2018-04-10T19:07:03.594Z,99.9
2018-04-10T19:12:03.763Z,99.9
2018-04-10T19:17:03.902Z,99.9
2018-04-10T19:22:03.148Z,99.9
2018-04-10T19:27:03.286Z,99.9
2018-04-10T19:32:03.527Z,99.9
2018-04-10T19:37:03.614Z,99.9
2018-04-10T19:42:03.608Z,99.9
2018-04-10T19:47:03.727Z,99.9
2018-04-10T19:52:03.847Z,99.9
2018-04-10T19:57:02.969Z,99.9
2018-04-10T20:02:03.247Z,99.9
2018-04-10T20:07:03.368Z,99.9
2018-04-10T20:12:03.589Z,99.9
2018-04-10T20:17:03.859Z,99.9
2018-04-10T20:22:03.851Z,99.9
2018-04-10T20:27:03.955Z,99.9
2018-04-10T20:32:03.137Z,99.9
2018-04-10T20:37:03.374Z,99.9
2018-04-10T20:42:03.493Z,99.9
2018-04-10T20:47:03.535Z,99.9
2018-04-10T20:52:03.692Z,99.9
2018-04-10T20:57:03.753Z,99.9
2018-04-10T21:02:03.876Z,99.9
2018-04-10T21:07:03.333Z,99.9
2018-04-10T21:12:03.475Z,99.9
2018-04-10T21:17:03.679Z,99.9
2018-04-10T21:22:03.760Z,99.9
2018-04-10T21:27:03.904Z,99.9
2018-04-10T21:32:03.992Z,99.9
2018-04-10T21:37:03.177Z,99.9
2018-04-10T21:42:03.300Z,99.9
2018-04-10T21:47:03.436Z,99.9
2018-04-10T21:52:03.446Z,99.9
2018-04-10T21:57:03.543Z,99.9
2018-04-10T22:02:03.806Z,99.7
2018-04-10T22:07:03.318Z,99.9
2018-04-10T22:12:03.105Z,99.9
2018-04-10T22:22:04.020Z,99.9
2018-04-10T22:27:03.307Z,99.9
2018-04-10T22:32:03.158Z,99.9
2018-04-10T22:37:03.043Z,99.9
2018-04-10T22:42:03.699Z,99.9
2018-04-10T22:47:03.326Z,99.9
2018-04-10T22:52:03.780Z,99.9
2018-04-10T22:57:03.518Z,99.9
2018-04-10T23:02:03.304Z,99.9
2018-04-10T23:07:03.508Z,99.9
2018-04-10T23:12:03.148Z,99.9
2018-04-10T23:17:03.965Z,99.8
2018-04-10T23:22:03.312Z,99.8
2018-04-10T23:27:03.959Z,99.9
2018-04-10T23:32:03.606Z,99.9
2018-04-10T23:37:03.661Z,99.9
2018-04-10T23:42:03.286Z,99.7
2018-04-10T23:47:03.205Z,99.9
2018-04-10T23:52:03.214Z,99.8
2018-04-10T23:57:03.830Z,99.8
